Time;durP1;ratioP1;P1;durP2;ratioP2;P2;SDS_P1;SDS_P2;PMS_P1;PMS_P2;Temp;Humidity;BMP_temperature;BMP_pressure;BME280_temperature;BME280_humidity;BME280_pressure;Samples;Min_cycle;Max_cycle;Signal;HPM_P1;HPM_P2
2021/08/20 00:02:03;;;;;;;21.90;10.73;;;;;;;17.07;80.74;100621.13;5064461;28;20115;-81
2021/08/20 00:04:30;;;;;;;75.43;13.68;;;;;;;17.11;80.47;100619.13;5066473;28;20033;-82
2021/08/20 00:06:57;;;;;;;70.38;13.38;;;;;;;17.11;80.34;100614.34;5047478;28;20128;-81
2021/08/20 00:09:27;;;;;;;51.60;12.68;;;;;;;17.09;80.60;100621.53;5046159;28;20500;-82
2021/08/20 00:11:53;;;;;;;45.42;14.25;;;;;;;17.08;80.73;100612.31;5064854;28;20063;-81
2021/08/20 00:14:21;;;;;;;41.80;12.60;;;;;;;17.12;80.36;100617.94;5065453;28;20052;-82
2021/08/20 00:16:48;;;;;;;48.78;12.93;;;;;;;17.12;80.42;100624.34;5064825;28;20059;-81
2021/08/20 00:19:15;;;;;;;72.05;14.20;;;;;;;17.13;80.28;100625.94;5064761;28;20519;-81
2021/08/20 00:21:44;;;;;;;50.13;12.93;;;;;;;17.10;80.43;100623.16;5064963;28;20045;-81
2021/08/20 00:24:15;;;;;;;58.78;13.30;;;;;;;17.03;80.74;100632.28;5065549;28;20272;-81
2021/08/20 00:26:42;;;;;;;43.47;13.07;;;;;;;17.09;80.66;100630.72;5065531;28;20054;-82
2021/08/20 00:29:10;;;;;;;55.30;12.63;;;;;;;17.18;80.41;100631.19;5065260;28;20123;-81
2021/08/20 00:31:40;;;;;;;82.72;13.48;;;;;;;17.19;80.18;100629.97;5047419;28;20132;-81
2021/08/20 00:34:06;;;;;;;196.20;21.35;;;;;;;17.18;80.20;100628.38;5064805;28;20402;-82
2021/08/20 00:36:33;;;;;;;28.83;10.85;;;;;;;17.15;80.43;100628.34;5064826;28;20062;-81
2021/08/20 00:39:00;;;;;;;64.07;13.63;;;;;;;17.14;80.62;100627.56;5063802;28;20033;-81
2021/08/20 00:41:27;;;;;;;40.55;12.20;;;;;;;17.22;80.39;100620.00;5064522;28;20461;-82
2021/08/20 00:43:55;;;;;;;43.17;12.68;;;;;;;17.21;80.50;100618.41;5045795;28;20056;-81
2021/08/20 00:46:21;;;;;;;74.63;14.05;;;;;;;17.22;80.36;100615.19;5046354;28;20504;-81
2021/08/20 00:48:48;;;;;;;53.17;13.13;;;;;;;17.24;80.16;100615.59;5064889;28;20051;-81
2021/08/20 00:51:15;;;;;;;45.05;12.23;;;;;;;17.25;80.24;100616.41;5064152;28;20070;-81
2021/08/20 00:53:42;;;;;;;32.75;11.43;;;;;;;17.24;79.95;100612.81;5047050;28;20135;-83
2021/08/20 00:56:10;;;;;;;59.90;12.30;;;;;;;17.22;80.15;100612.41;5056195;28;20037;-81
2021/08/20 00:58:37;;;;;;;105.50;15.30;;;;;;;17.24;80.04;100598.00;5063869;28;20050;-82
2021/08/20 01:01:04;;;;;;;39.22;14.20;;;;;;;17.21;80.20;100602.41;5047538;28;20127;-81
2021/08/20 01:03:32;;;;;;;74.28;13.02;;;;;;;17.20;80.53;100609.19;5045653;28;20148;-81
2021/08/20 01:06:01;;;;;;;110.10;14.35;;;;;;;17.16;80.06;100597.19;5045314;28;20749;-81
2021/08/20 01:08:30;;;;;;;88.20;12.95;;;;;;;17.17;80.29;100604.38;5062771;28;20048;-81
2021/08/20 01:11:00;;;;;;;126.90;15.68;;;;;;;17.13;80.38;100609.16;5045185;28;20044;-81
2021/08/20 01:13:31;;;;;;;127.35;16.20;;;;;;;17.08;80.75;100592.75;5062871;28;20046;-81
2021/08/20 01:16:00;;;;;;;105.05;15.57;;;;;;;17.02;80.94;100588.75;5030466;28;20484;-81
2021/08/20 01:18:32;;;;;;;154.68;17.30;;;;;;;16.96;81.12;100587.50;5064528;28;20559;-81
2021/08/20 01:21:03;;;;;;;37.92;11.55;;;;;;;16.84;81.71;100580.25;5045045;28;20059;-82
2021/08/20 01:23:30;;;;;;;110.57;14.77;;;;;;;16.86;81.61;100577.06;5063674;28;20404;-81
2021/08/20 01:25:58;;;;;;;135.80;15.77;;;;;;;16.84;81.52;100585.84;5063531;28;20491;-81
2021/08/20 01:28:26;;;;;;;41.08;12.10;;;;;;;16.89;81.43;100588.25;5063299;28;20119;-81
2021/08/20 01:31:09;;;;;;;55.50;12.75;;;;;;;16.88;81.34;100585.88;5062967;28;20075;-82
2021/08/20 01:33:38;;;;;;;73.53;13.13;;;;;;;16.85;81.44;100586.66;5056920;28;20040;-81
2021/08/20 01:36:05;;;;;;;23.05;11.27;;;;;;;16.89;81.23;100581.88;5045720;28;20071;-81
2021/08/20 01:38:34;;;;;;;23.95;10.60;;;;;;;16.89;81.17;100582.66;5061445;28;20119;-83
2021/08/20 01:41:02;;;;;;;23.83;10.30;;;;;;;16.88;81.29;100580.28;5063772;28;20052;-81
2021/08/20 01:43:28;;;;;;;19.65;9.35;;;;;;;16.84;81.56;100585.03;5064205;28;20044;-81
2021/08/20 01:45:55;;;;;;;20.67;8.98;;;;;;;16.80;81.59;100575.84;5045026;28;21131;-81
2021/08/20 01:48:22;;;;;;;16.85;9.23;;;;;;;16.84;81.52;100571.06;5045633;28;21454;-81
2021/08/20 01:50:49;;;;;;;19.38;9.02;;;;;;;16.88;81.41;100583.88;5062672;28;20109;-81
2021/08/20 01:53:16;;;;;;;18.00;8.85;;;;;;;16.86;81.41;100582.66;5064241;28;20046;-81
2021/08/20 01:55:44;;;;;;;18.20;9.60;;;;;;;16.91;81.33;100585.09;5045839;28;20083;-82
2021/08/20 01:58:12;;;;;;;16.27;8.57;;;;;;;16.89;81.18;100576.28;5063425;28;20143;-81
2021/08/20 02:00:40;;;;;;;15.95;8.82;;;;;;;16.85;81.02;100576.28;5062537;28;20045;-81
2021/08/20 02:03:07;;;;;;;17.15;9.65;;;;;;;16.82;81.03;100562.25;5062845;28;20484;-82
2021/08/20 02:05:35;;;;;;;15.68;8.43;;;;;;;16.77;81.15;100563.44;5046514;28;20041;-81
2021/08/20 02:08:02;;;;;;;16.38;7.97;;;;;;;16.72;81.18;100566.63;5044314;28;20130;-82
2021/08/20 02:10:29;;;;;;;15.50;9.73;;;;;;;16.65;81.70;100558.19;5046255;28;20048;-81
2021/08/20 02:12:57;;;;;;;23.58;10.50;;;;;;;16.63;81.42;100557.75;5043726;28;20048;-81
2021/08/20 02:15:23;;;;;;;19.23;10.27;;;;;;;16.65;81.56;100566.59;5062547;28;20049;-81
2021/08/20 02:17:50;;;;;;;21.63;10.85;;;;;;;16.65;81.58;100562.97;5062582;28;20049;-82
2021/08/20 02:20:17;;;;;;;20.55;10.40;;;;;;;16.65;81.58;100562.97;5062724;28;20139;-82
2021/08/20 02:22:44;;;;;;;21.48;10.43;;;;;;;16.70;81.24;100562.59;5043439;28;20044;-81
2021/08/20 02:25:11;;;;;;;21.70;10.35;;;;;;;16.72;80.99;100560.22;5028044;28;20567;-82
2021/08/20 02:27:37;;;;;;;16.60;8.13;;;;;;;16.66;81.53;100561.78;5063600;28;20059;-81
2021/08/20 02:30:05;;;;;;;20.95;11.75;;;;;;;16.69;81.39;100558.19;5044802;28;20492;-82
2021/08/20 02:32:32;;;;;;;21.27;11.38;;;;;;;16.66;81.00;100556.19;5062833;28;20075;-81
2021/08/20 02:35:08;;;;;;;18.30;10.10;;;;;;;16.65;81.10;100549.00;5046889;28;20101;-82
2021/08/20 02:37:35;;;;;;;18.55;9.32;;;;;;;16.65;81.05;100549.00;5063253;28;20044;-81
2021/08/20 02:40:02;;;;;;;15.77;7.78;;;;;;;16.57;81.31;100552.94;5043938;28;20071;-81
2021/08/20 02:42:28;;;;;;;15.52;8.82;;;;;;;16.54;81.53;100548.94;5063685;28;20543;-82
2021/08/20 02:44:55;;;;;;;17.92;8.85;;;;;;;16.51;81.53;100548.88;5062689;28;20083;-81
2021/08/20 02:47:22;;;;;;;14.45;7.53;;;;;;;16.53;81.49;100549.31;5063169;28;20050;-81
2021/08/20 02:49:49;;;;;;;14.10;7.55;;;;;;;16.51;81.66;100548.88;5028142;28;20052;-81
2021/08/20 02:52:15;;;;;;;13.48;7.18;;;;;;;16.53;81.57;100540.94;5062070;28;20033;-81
2021/08/20 02:54:42;;;;;;;12.70;7.05;;;;;;;16.54;81.52;100542.53;5063634;28;20063;-81
2021/08/20 02:57:09;;;;;;;14.45;8.25;;;;;;;16.58;81.25;100546.16;5063259;28;20103;-81
2021/08/20 02:59:36;;;;;;;17.55;9.18;;;;;;;16.57;81.22;100548.16;5062047;28;20041;-81
2021/08/20 03:02:04;;;;;;;13.90;7.93;;;;;;;16.57;81.52;100541.78;5061721;28;20044;-81
2021/08/20 03:04:32;;;;;;;14.82;7.82;;;;;;;16.59;81.11;100536.59;5063251;28;20040;-81
2021/08/20 03:06:59;;;;;;;15.77;8.55;;;;;;;16.59;81.46;100550.56;5044518;28;20140;-80
2021/08/20 03:09:25;;;;;;;13.85;7.55;;;;;;;16.56;81.39;100546.56;5043586;28;20079;-81
2021/08/20 03:11:52;;;;;;;18.90;9.07;;;;;;;16.57;81.55;100548.16;5061401;28;20090;-81
2021/08/20 03:14:20;;;;;;;15.70;9.05;;;;;;;16.55;81.60;100538.56;5043930;28;20048;-81
2021/08/20 03:16:47;;;;;;;15.77;8.43;;;;;;;16.54;81.54;100537.75;5043647;28;20047;-81
2021/08/20 03:19:14;;;;;;;19.90;9.70;;;;;;;16.53;81.54;100535.34;5043284;28;20194;-81
2021/08/20 03:21:40;;;;;;;16.58;9.30;;;;;;;16.50;81.35;100531.31;5063078;28;20044;-81
2021/08/20 03:24:07;;;;;;;19.67;9.45;;;;;;;16.46;81.57;100527.69;5062042;28;20059;-81
2021/08/20 03:26:35;;;;;;;22.40;9.75;;;;;;;16.41;81.72;100528.84;5044770;28;20036;-81
2021/08/20 03:29:02;;;;;;;20.00;9.70;;;;;;;16.41;81.68;100530.88;5062584;28;20053;-81
2021/08/20 03:31:29;;;;;;;19.10;9.77;;;;;;;16.38;81.73;100532.44;5063186;28;20059;-82
2021/08/20 03:33:56;;;;;;;22.92;11.05;;;;;;;16.37;81.93;100533.63;5063218;28;20037;-82
2021/08/20 03:36:24;;;;;;;28.88;11.80;;;;;;;16.34;82.13;100526.03;5047678;28;20412;-81
2021/08/20 03:38:51;;;;;;;28.33;13.60;;;;;;;16.30;82.32;100521.59;5065078;28;20028;-82
2021/08/20 03:41:19;;;;;;;36.95;14.63;;;;;;;16.27;82.08;100523.19;5066275;28;20036;-81
2021/08/20 03:43:46;;;;;;;36.47;16.25;;;;;;;16.25;82.35;100519.19;5048994;28;20086;-81
2021/08/20 03:46:14;;;;;;;32.03;14.43;;;;;;;16.24;82.48;100507.19;5049071;28;20045;-81
2021/08/20 03:48:44;;;;;;;35.95;15.02;;;;;;;16.27;82.55;100522.38;5066003;28;20067;-82
2021/08/20 03:51:12;;;;;;;43.20;16.75;;;;;;;16.26;82.34;100504.81;5065177;28;20048;-81
2021/08/20 03:53:39;;;;;;;32.88;14.32;;;;;;;16.24;82.46;100509.19;5048473;28;20072;-81
2021/08/20 03:56:06;;;;;;;33.95;14.48;;;;;;;16.22;82.69;100515.19;5065609;28;20072;-81
2021/08/20 03:58:32;;;;;;;32.58;13.40;;;;;;;16.26;82.52;100506.81;5031068;28;20048;-81
2021/08/20 04:00:59;;;;;;;35.00;14.88;;;;;;;16.28;82.58;100508.00;5064527;28;20510;-80
2021/08/20 04:03:26;;;;;;;37.58;14.07;;;;;;;16.28;82.45;100505.22;5066305;28;20033;-81
2021/08/20 04:05:53;;;;;;;34.88;11.63;;;;;;;16.22;82.62;100506.78;5065468;28;20053;-81
2021/08/20 04:08:20;;;;;;;39.63;14.70;;;;;;;16.22;82.36;100512.38;5030311;28;20048;-81
2021/08/20 04:10:47;;;;;;;112.65;16.27;;;;;;;16.21;82.75;100507.97;5064385;28;20049;-81
2021/08/20 04:13:13;;;;;;;58.88;13.23;;;;;;;16.20;83.21;100505.59;5066436;28;20068;-81
2021/08/20 04:15:40;;;;;;;69.30;14.80;;;;;;;16.16;83.18;100513.94;5064141;28;20049;-81
2021/08/20 04:18:07;;;;;;;30.13;11.15;;;;;;;16.20;82.95;100509.16;5047588;28;20127;-81
2021/08/20 04:20:34;;;;;;;59.40;15.00;;;;;;;16.24;83.13;100511.97;5046829;28;20423;-81
2021/08/20 04:23:05;;;;;;;83.90;16.00;;;;;;;16.24;83.41;100498.81;5065429;28;20051;-81
2021/08/20 04:25:32;;;;;;;69.57;15.27;;;;;;;16.23;83.16;100505.59;5047431;28;20056;-81
2021/08/20 04:28:00;;;;;;;89.20;13.90;;;;;;;16.23;83.25;100499.22;5064996;28;20045;-81
2021/08/20 04:30:30;;;;;;;65.05;15.30;;;;;;;16.21;83.54;100493.19;5064819;28;20048;-81
2021/08/20 04:32:58;;;;;;;40.78;11.75;;;;;;;16.19;83.71;100507.56;5064422;28;20152;-80
2021/08/20 04:35:27;;;;;;;57.50;14.93;;;;;;;16.23;83.89;100505.59;5047592;28;20051;-81
2021/08/20 04:37:54;;;;;;;47.83;12.95;;;;;;;16.26;83.84;100507.59;5046289;28;20036;-81
2021/08/20 04:40:21;;;;;;;37.33;13.95;;;;;;;16.28;83.89;100501.66;5045269;28;20434;-82
2021/08/20 04:42:48;;;;;;;69.45;14.60;;;;;;;16.27;83.99;100503.63;5047334;28;20041;-81
2021/08/20 04:45:16;;;;;;;105.35;17.88;;;;;;;16.29;84.06;100498.44;5046788;28;20059;-82
2021/08/20 04:47:44;;;;;;;143.98;21.08;;;;;;;16.26;83.75;100499.22;5045714;28;20047;-81
2021/08/20 04:50:12;;;;;;;90.72;16.92;;;;;;;16.21;84.12;100496.81;5064522;28;20044;-82
2021/08/20 04:52:40;;;;;;;86.85;15.60;;;;;;;16.21;84.10;100507.16;5047751;28;20492;-81
2021/08/20 04:55:08;;;;;;;60.15;13.25;;;;;;;16.21;84.00;100505.19;5064917;28;20526;-82
2021/08/20 04:57:34;;;;;;;77.03;15.63;;;;;;;16.22;84.23;100509.59;5064137;28;20044;-81
2021/08/20 05:00:04;;;;;;;37.42;14.55;;;;;;;16.22;84.42;100511.56;5046701;28;20043;-81
2021/08/20 05:02:33;;;;;;;51.35;14.32;;;;;;;16.20;84.63;100513.97;5038696;28;20123;-82
2021/08/20 05:05:00;;;;;;;30.15;11.40;;;;;;;16.21;84.63;100519.16;5045553;28;20550;-81
2021/08/20 05:07:29;;;;;;;35.83;11.65;;;;;;;16.23;84.70;100515.97;5028001;28;20459;-81
2021/08/20 05:09:57;;;;;;;26.48;11.68;;;;;;;16.24;84.69;100514.78;5064446;28;20068;-81
2021/08/20 05:12:24;;;;;;;36.63;12.60;;;;;;;16.25;84.46;100514.41;5063973;28;20041;-81
2021/08/20 05:14:50;;;;;;;39.88;10.50;;;;;;;16.25;84.86;100517.19;5044262;28;20433;-81
2021/08/20 05:17:17;;;;;;;73.65;13.57;;;;;;;16.28;84.80;100507.25;5028916;28;20048;-81
2021/08/20 05:19:44;;;;;;;88.60;13.13;;;;;;;16.33;84.43;100513.25;5064528;28;20102;-81
2021/08/20 05:22:11;;;;;;;38.80;11.40;;;;;;;16.31;84.08;100510.03;5063918;28;20036;-81
2021/08/20 05:24:38;;;;;;;34.45;11.27;;;;;;;16.30;84.29;100516.03;5045063;28;20052;-81
2021/08/20 05:27:05;;;;;;;19.52;9.40;;;;;;;16.27;84.20;100514.81;5063639;28;20491;-81
2021/08/20 05:29:33;;;;;;;26.75;10.95;;;;;;;16.28;84.42;100530.34;5064264;28;20051;-81
2021/08/20 05:32:00;;;;;;;37.55;11.43;;;;;;;16.28;84.69;100524.00;5045063;28;20040;-81
2021/08/20 05:34:27;;;;;;;20.02;9.10;;;;;;;16.31;84.50;100521.22;5064243;28;20051;-81
2021/08/20 05:36:54;;;;;;;24.25;12.27;;;;;;;16.33;84.37;100521.63;5063642;28;20044;-81
2021/08/20 05:39:21;;;;;;;26.45;10.77;;;;;;;16.32;84.55;100519.22;5045536;28;20040;-81
2021/08/20 05:41:48;;;;;;;22.05;10.82;;;;;;;16.30;84.66;100522.41;5064264;28;20062;-81
2021/08/20 05:44:15;;;;;;;25.23;9.88;;;;;;;16.32;84.91;100527.59;5045105;28;20044;-81
2021/08/20 05:46:42;;;;;;;19.70;9.65;;;;;;;16.37;84.82;100539.22;5045699;28;20041;-81
2021/08/20 05:49:08;;;;;;;22.98;10.40;;;;;;;16.42;84.43;100535.25;5064255;28;20037;-81
2021/08/20 05:51:35;;;;;;;23.42;10.73;;;;;;;16.48;84.16;100535.69;5063537;28;20115;-80
2021/08/20 05:54:03;;;;;;;22.80;9.77;;;;;;;16.47;83.97;100528.50;5045191;28;20052;-82
2021/08/20 05:56:29;;;;;;;16.20;8.82;;;;;;;16.44;84.29;100536.47;5044485;28;20522;-81
2021/08/20 05:59:00;;;;;;;21.88;10.07;;;;;;;16.44;84.38;100527.28;5062910;28;20043;-81
2021/08/20 06:01:27;;;;;;;27.30;11.18;;;;;;;16.48;84.56;100532.88;5028659;28;20045;-81
2021/08/20 06:03:54;;;;;;;30.52;11.05;;;;;;;16.55;83.97;100528.16;5045421;28;20536;-81
2021/08/20 06:06:21;;;;;;;26.27;9.55;;;;;;;16.59;84.08;100533.78;5022066;28;20052;-81
2021/08/20 06:08:47;;;;;;;22.98;10.25;;;;;;;16.63;84.06;100523.41;5043859;28;20044;-81
2021/08/20 06:11:14;;;;;;;24.40;10.27;;;;;;;16.68;83.77;100525.88;5062717;28;20051;-82
2021/08/20 06:13:42;;;;;;;25.77;9.55;;;;;;;16.70;83.87;100523.47;5062319;28;20160;-81
2021/08/20 06:16:09;;;;;;;21.75;9.98;;;;;;;16.71;83.67;100528.66;5062690;28;20051;-81
2021/08/20 06:18:36;;;;;;;20.02;9.52;;;;;;;16.72;83.64;100519.09;5063293;28;20044;-81
2021/08/20 06:21:03;;;;;;;24.05;9.68;;;;;;;16.78;84.03;100520.31;5062482;28;20045;-81
2021/08/20 06:23:31;;;;;;;16.08;8.45;;;;;;;16.80;83.79;100517.94;5063308;28;20033;-81
2021/08/20 06:25:58;;;;;;;16.63;9.15;;;;;;;16.78;83.87;100530.69;5043807;28;20047;-81
2021/08/20 06:28:24;;;;;;;14.80;7.95;;;;;;;16.80;83.77;100523.53;5063939;28;20488;-81
2021/08/20 06:30:51;;;;;;;12.20;6.78;;;;;;;16.82;83.82;100520.31;5026880;28;20460;-82
2021/08/20 06:33:18;;;;;;;15.23;7.60;;;;;;;16.83;83.52;100525.53;5062600;28;20048;-81
2021/08/20 06:35:45;;;;;;;16.63;7.43;;;;;;;16.87;83.52;100514.34;5062021;28;20053;-81
2021/08/20 06:38:12;;;;;;;14.88;8.23;;;;;;;16.86;83.36;100518.34;5062940;28;20562;-81
2021/08/20 06:40:38;;;;;;;13.50;8.07;;;;;;;16.84;83.61;100523.50;5063234;28;20125;-81
2021/08/20 06:43:06;;;;;;;16.95;9.40;;;;;;;16.85;83.83;100525.94;5062827;28;20033;-81
2021/08/20 06:45:33;;;;;;;19.92;9.40;;;;;;;16.89;83.50;100528.75;5061565;28;20512;-81
2021/08/20 06:47:59;;;;;;;18.27;9.75;;;;;;;16.89;83.52;100526.75;5055020;28;20045;-81
2021/08/20 06:50:27;;;;;;;25.83;12.05;;;;;;;16.91;83.39;100521.56;5044153;28;20381;-80
2021/08/20 06:52:54;;;;;;;22.77;10.70;;;;;;;16.92;83.43;100525.16;5019982;28;20450;-81
2021/08/20 06:55:22;;;;;;;24.60;11.55;;;;;;;16.90;83.41;100522.75;5063015;28;20041;-81
2021/08/20 06:57:49;;;;;;;25.80;11.43;;;;;;;16.91;83.62;100520.78;5063793;28;20048;-81
2021/08/20 07:00:16;;;;;;;23.20;12.30;;;;;;;16.93;83.48;100521.16;5059529;28;20506;-81
2021/08/20 07:02:44;;;;;;;27.08;12.35;;;;;;;16.94;83.33;100528.38;5043704;28;20051;-81
2021/08/20 07:05:13;;;;;;;22.67;10.55;;;;;;;16.96;83.34;100529.59;5060933;28;20052;-82
2021/08/20 07:07:40;;;;;;;26.10;12.63;;;;;;;17.02;83.37;100530.00;5045015;28;20138;-81
2021/08/20 07:10:12;;;;;;;30.83;13.38;;;;;;;17.02;83.48;100527.22;5044572;28;20464;-82
2021/08/20 07:12:40;;;;;;;31.85;13.43;;;;;;;17.07;83.79;100526.81;5064359;28;20046;-82
2021/08/20 07:15:11;;;;;;;34.03;15.82;;;;;;;17.09;83.53;100527.22;5064020;28;20052;-82
2021/08/20 07:17:39;;;;;;;40.03;17.27;;;;;;;17.10;83.58;100534.44;5066103;28;20036;-81
2021/08/20 07:20:06;;;;;;;32.88;16.15;;;;;;;17.10;83.78;100534.44;5048554;28;20123;-81
2021/08/20 07:22:33;;;;;;;38.90;16.52;;;;;;;17.07;84.00;100534.41;5063068;28;20510;-81
2021/08/20 07:24:59;;;;;;;28.65;14.48;;;;;;;17.02;84.18;100535.59;5025220;28;20040;-81
2021/08/20 07:27:26;;;;;;;37.28;16.70;;;;;;;16.99;84.11;100530.78;5047627;28;20091;-82
2021/08/20 07:29:53;;;;;;;31.48;14.18;;;;;;;17.00;84.25;100529.56;5047644;28;20045;-81
2021/08/20 07:32:20;;;;;;;28.48;13.00;;;;;;;17.04;84.14;100527.63;5064501;28;20053;-81
2021/08/20 07:34:46;;;;;;;31.20;13.60;;;;;;;17.05;84.56;100520.81;5046817;28;20662;-80
2021/08/20 07:37:13;;;;;;;24.17;12.25;;;;;;;17.05;84.71;100523.59;5060534;28;20456;-81
2021/08/20 07:39:40;;;;;;;21.70;10.75;;;;;;;17.09;84.81;100520.81;5052557;28;20045;-82
2021/08/20 07:42:07;;;;;;;22.38;10.98;;;;;;;17.14;84.84;100521.25;5056109;28;20400;-82
2021/08/20 07:44:34;;;;;;;23.70;10.60;;;;;;;17.18;85.11;100527.66;5065433;28;20083;-80
2021/08/20 07:47:02;;;;;;;19.77;10.13;;;;;;;17.24;84.87;100528.88;5064348;28;20046;-83
2021/08/20 07:49:29;;;;;;;17.38;8.57;;;;;;;17.31;84.90;100531.69;5065047;28;20032;-84
2021/08/20 07:51:58;;;;;;;17.17;9.70;;;;;;;17.38;84.81;100525.31;5063779;28;20155;-84
2021/08/20 07:54:25;;;;;;;17.27;7.85;;;;;;;17.46;84.87;100527.72;5046584;28;20041;-85
2021/08/20 07:56:51;;;;;;;15.98;8.45;;;;;;;17.51;84.79;100532.94;5045366;28;20068;-84
2021/08/20 07:59:22;;;;;;;18.60;8.00;;;;;;;17.56;84.78;100538.16;5064749;28;20737;-86
2021/08/20 08:01:52;;;;;;;14.27;7.55;;;;;;;17.57;84.70;100539.78;5044026;28;20049;-87
2021/08/20 08:04:20;;;;;;;12.57;7.65;;;;;;;17.60;84.69;100539.00;5029961;28;20077;-85
2021/08/20 08:06:47;;;;;;;11.05;6.05;;;;;;;17.63;84.42;100540.97;5048199;28;20048;-87
2021/08/20 08:09:13;;;;;;;8.35;5.22;;;;;;;17.65;84.36;100540.59;5049525;28;20510;-85
2021/08/20 08:11:40;;;;;;;11.65;5.53;;;;;;;17.65;84.62;100529.41;5049119;28;20055;-85
2021/08/20 08:14:07;;;;;;;9.48;5.05;;;;;;;17.69;84.41;100532.19;5047125;28;20386;-85
2021/08/20 08:16:36;;;;;;;9.35;4.88;;;;;;;17.72;84.36;100529.38;5067277;28;20361;-86
2021/08/20 08:19:05;;;;;;;6.88;4.65;;;;;;;17.80;84.45;100527.38;5041607;28;20431;-85
2021/08/20 08:21:33;;;;;;;7.22;3.67;;;;;;;17.89;84.42;100541.81;5065909;28;20043;-81
2021/08/20 08:24:00;;;;;;;9.98;4.22;;;;;;;18.00;84.54;100546.19;5030815;28;20439;-81
2021/08/20 08:26:31;;;;;;;8.30;4.13;;;;;;;18.07;84.62;100537.00;5056990;28;20139;-81
2021/08/20 08:28:59;;;;;;;12.95;9.27;;;;;;;18.12;84.63;100543.00;5046709;28;20044;-81
2021/08/20 08:31:26;;;;;;;7.28;3.60;;;;;;;18.19;84.88;100542.19;5064279;28;20051;-81
2021/08/20 08:33:53;;;;;;;11.23;4.28;;;;;;;18.20;84.51;100541.00;5066731;28;20047;-82
2021/08/20 08:36:20;;;;;;;10.63;4.25;;;;;;;18.22;84.52;100547.81;5065375;28;20044;-81
2021/08/20 08:38:47;;;;;;;8.85;4.00;;;;;;;18.27;84.33;100541.78;5066201;28;20097;-82
2021/08/20 08:41:14;;;;;;;14.88;4.57;;;;;;;18.35;84.55;100525.75;5065941;28;20068;-81
2021/08/20 08:43:42;;;;;;;9.20;4.50;;;;;;;18.49;84.80;100524.97;5048078;28;20048;-81
2021/08/20 08:46:10;;;;;;;12.98;4.97;;;;;;;18.63;84.67;100534.16;5043825;28;20777;-81
2021/08/20 08:48:39;;;;;;;11.40;4.03;;;;;;;18.75;84.44;100525.28;5063449;28;20884;-81
2021/08/20 08:51:09;;;;;;;8.25;3.45;;;;;;;18.88;84.41;100524.88;5046923;28;20079;-81
2021/08/20 08:53:36;;;;;;;5.38;2.60;;;;;;;19.17;84.54;100535.53;5046264;28;20127;-81
2021/08/20 08:56:03;;;;;;;10.40;4.03;;;;;;;19.45;84.05;100534.63;5063064;28;20131;-82
2021/08/20 08:58:30;;;;;;;9.15;3.33;;;;;;;19.67;83.41;100541.69;5063711;28;20041;-81
2021/08/20 09:00:57;;;;;;;6.90;2.55;;;;;;;19.84;83.01;100540.75;5064815;28;20044;-82
2021/08/20 09:03:27;;;;;;;4.00;2.40;;;;;;;20.10;82.47;100538.53;5030056;28;20060;-81
2021/08/20 09:05:58;;;;;;;6.68;2.63;;;;;;;20.62;82.30;100542.91;5063388;28;20044;-82
2021/08/20 09:08:29;;;;;;;7.40;3.65;;;;;;;21.19;81.89;100541.03;5063777;28;20090;-83
2021/08/20 09:10:59;;;;;;;6.20;2.13;;;;;;;21.43;80.39;100538.28;5064181;28;20036;-82
2021/08/20 09:13:28;;;;;;;;;;;;;;;21.34;77.99;100540.84;5063728;28;20052;-82
2021/08/20 09:16:12;;;;;;;3.33;1.83;;;;;;;21.35;77.87;100548.06;5064244;28;19924;-81
2021/08/20 09:18:40;;;;;;;1.83;1.60;;;;;;;21.50;78.13;100549.47;5063951;28;20136;-81
2021/08/20 09:21:13;;;;;;;3.42;1.77;;;;;;;21.62;77.14;100548.88;5045550;28;20041;-81
2021/08/20 09:23:40;;;;;;;5.68;2.95;;;;;;;21.94;76.36;100549.22;5055464;28;20080;-82
2021/08/20 09:26:07;;;;;;;4.50;1.70;;;;;;;22.04;75.52;100545.44;5027922;28;20059;-82
2021/08/20 09:28:34;;;;;;;2.72;1.70;;;;;;;21.87;75.25;100549.31;5060297;28;20032;-82
2021/08/20 09:31:11;;;;;;;2.78;1.38;;;;;;;21.65;73.15;100550.84;5027792;28;20870;-81
2021/08/20 09:33:43;;;;;;;3.05;1.02;;;;;;;21.40;72.94;100533.50;5062934;28;20045;-80
2021/08/20 09:36:19;;;;;;;2.28;1.10;;;;;;;21.19;73.16;100538.22;5044198;28;20047;-80
2021/08/20 09:38:51;;;;;;;2.10;1.20;;;;;;;21.01;73.54;100548.88;5061388;28;20044;-80
2021/08/20 09:41:25;;;;;;;3.65;1.50;;;;;;;20.80;73.61;100543.50;5043414;28;20037;-80
2021/08/20 09:44:00;;;;;;;4.78;1.90;;;;;;;20.66;74.10;100540.84;5062153;28;20044;-80
2021/08/20 09:46:44;;;;;;;5.28;1.73;;;;;;;20.60;74.37;100536.88;5061452;28;20044;-80
2021/08/20 09:49:14;;;;;;;6.07;2.83;;;;;;;20.60;74.42;100551.75;5061827;28;20068;-80
2021/08/20 09:51:44;;;;;;;5.40;1.90;;;;;;;20.67;74.73;100542.44;5061042;28;20071;-80
2021/08/20 09:54:16;;;;;;;7.50;2.13;;;;;;;20.64;74.56;100544.09;5042677;28;20040;-80
2021/08/20 09:56:59;;;;;;;7.13;2.42;;;;;;;20.55;74.53;100551.41;5055915;28;20043;-80
2021/08/20 09:59:29;;;;;;;5.32;2.45;;;;;;;20.43;74.41;100544.31;5040834;28;20044;-79
2021/08/20 10:01:58;;;;;;;6.15;1.95;;;;;;;20.36;74.76;100552.78;5063239;28;20492;-79
2021/08/20 10:04:27;;;;;;;5.30;2.35;;;;;;;20.34;74.59;100558.03;5044374;28;20147;-80
2021/08/20 10:06:56;;;;;;;3.95;1.65;;;;;;;20.37;74.96;100553.59;5062944;28;20077;-81
2021/08/20 10:09:28;;;;;;;;;;;;;;;20.36;74.20;100554.81;5046616;28;20131;-79
2021/08/20 10:11:56;;;;;;;3.42;0.95;;;;;;;20.41;74.47;100560.00;5054824;28;19926;-80
2021/08/20 10:14:25;;;;;;;3.15;1.10;;;;;;;20.52;74.18;100553.03;5062358;28;20060;-80
2021/08/20 10:16:52;;;;;;;1.80;1.33;;;;;;;20.70;74.26;100552.88;5063146;28;20052;-80
2021/08/20 10:19:19;;;;;;;4.85;0.82;;;;;;;20.92;73.49;100554.19;5044153;28;20076;-79
2021/08/20 10:21:47;;;;;;;3.05;0.98;;;;;;;21.17;73.28;100543.47;5055949;28;20049;-80
2021/08/20 10:24:14;;;;;;;3.55;1.10;;;;;;;21.69;73.19;100545.94;5044117;28;20696;-79
2021/08/20 10:26:47;;;;;;;0.90;0.65;;;;;;;22.19;71.42;100555.22;5038559;28;20102;-80
2021/08/20 10:29:19;;;;;;;4.30;1.40;;;;;;;22.32;71.41;100544.94;5043432;28;20866;-81
2021/08/20 10:31:46;;;;;;;1.10;0.80;;;;;;;22.28;70.74;100551.88;5055501;28;20070;-79
2021/08/20 10:34:37;;;;;;;2.30;0.90;;;;;;;22.10;69.06;100543.72;5063065;28;20508;-81
2021/08/20 10:37:26;;;;;;;1.27;0.90;;;;;;;21.88;68.93;100547.31;5036825;28;20049;-81
2021/08/20 10:39:56;;;;;;;1.48;0.60;;;;;;;21.60;69.59;100548.53;5043828;28;20037;-80
2021/08/20 10:42:35;;;;;;;3.90;0.80;;;;;;;21.41;68.88;100549.19;5062004;28;20811;-80
2021/08/20 10:45:12;;;;;;;0.88;0.68;;;;;;;21.25;69.44;100544.19;5043412;28;20492;-80
2021/08/20 10:47:40;;;;;;;1.27;0.52;;;;;;;21.27;70.36;100540.94;5060608;28;20496;-80
2021/08/20 10:50:19;;;;;;;4.30;1.95;;;;;;;21.35;69.88;100542.41;5063138;28;20079;-81
2021/08/20 10:52:51;;;;;;;7.35;2.88;;;;;;;21.61;70.30;100539.63;5044464;28;20187;-81
2021/08/20 10:55:26;;;;;;;3.72;1.50;;;;;;;21.82;68.93;100544.13;5060273;28;20044;-82
2021/08/20 10:57:57;;;;;;;0.85;0.85;;;;;;;21.87;68.96;100552.13;5042785;28;20047;-82
2021/08/20 11:00:26;;;;;;;1.73;1.42;;;;;;;21.91;69.36;100555.72;5062697;28;20094;-81
2021/08/20 11:02:59;;;;;;;2.33;1.10;;;;;;;21.82;69.23;100555.41;5062927;28;20046;-81
2021/08/20 11:05:40;;;;;;;2.58;1.10;;;;;;;21.68;69.23;100552.81;5062819;28;20048;-80
2021/08/20 11:08:28;;;;;;;1.55;0.80;;;;;;;21.71;69.06;100546.34;5023743;28;20413;-80
2021/08/20 11:10:57;;;;;;;2.58;1.60;;;;;;;21.75;69.29;100555.53;5042527;28;20052;-81
2021/08/20 11:13:25;;;;;;;4.40;1.35;;;;;;;21.86;69.09;100547.75;5062538;28;20048;-82
2021/08/20 11:15:56;;;;;;;4.78;1.70;;;;;;;22.01;68.80;100557.56;5039172;28;20384;-80
2021/08/20 11:18:46;;;;;;;2.45;1.70;;;;;;;21.95;68.52;100542.34;5062514;28;20067;-80
2021/08/20 11:21:45;;;;;;;6.55;2.85;;;;;;;21.79;69.02;100539.34;5046979;28;20067;-80